createdAt,value
2023-05-07T00:00:01.246Z,101117.78
2023-05-07T00:02:27.784Z,101119.44
2023-05-07T00:04:54.317Z,101110.63
2023-05-07T00:07:20.830Z,101120.47
2023-05-07T00:09:47.257Z,101119.69
2023-05-07T00:12:13.665Z,101117.75
2023-05-07T00:14:40.111Z,101114.19
2023-05-07T00:17:06.510Z,101109.22
2023-05-07T00:19:32.954Z,101104.59
2023-05-07T00:21:59.632Z,101100.78
2023-05-07T00:24:26.202Z,101100.25
2023-05-07T00:26:56.927Z,101107.91
2023-05-07T00:29:23.362Z,101107.34
2023-05-07T00:31:50.945Z,101108.47
2023-05-07T00:34:17.439Z,101116.94
2023-05-07T00:36:43.867Z,101107.91
2023-05-07T00:39:10.240Z,101113.94
2023-05-07T00:41:36.637Z,101106.81
2023-05-07T00:44:03.328Z,101103.25
2023-05-07T00:46:31.858Z,101106.28
2023-05-07T00:48:58.928Z,101109.28
2023-05-07T00:51:28.248Z,101093.69
2023-05-07T00:53:54.851Z,101099.41
2023-05-07T00:56:23.266Z,101097.25
2023-05-07T00:58:50.454Z,101090.38
2023-05-07T01:01:17.713Z,101095.28
2023-05-07T01:03:44.374Z,101098.31
2023-05-07T01:06:13.642Z,101101.31
2023-05-07T01:08:41.979Z,101095.84
2023-05-07T01:11:09.482Z,101091.47
2023-05-07T01:13:37.626Z,101089.28
2023-05-07T01:16:04.829Z,101084.91
2023-05-07T01:18:31.511Z,101080.53
2023-05-07T01:20:59.818Z,101075.06
2023-05-07T01:23:28.131Z,101076.97
2023-05-07T01:25:55.265Z,101061.38
2023-05-07T01:28:21.873Z,101067.97
2023-05-07T01:30:57.553Z,101067.69
2023-05-07T01:33:25.811Z,101068.50
2023-05-07T01:35:54.884Z,101071.78
2023-05-07T01:38:24.708Z,101068.78
2023-05-07T01:40:51.817Z,101079.47
2023-05-07T01:43:18.759Z,101074.53
2023-05-07T01:45:46.379Z,101069.06
2023-05-07T01:48:15.296Z,101078.91
2023-05-07T01:50:43.774Z,101069.34
2023-05-07T01:53:10.185Z,101068.25
2023-05-07T01:55:37.859Z,101067.97
2023-05-07T01:58:04.891Z,101069.88
2023-05-07T02:00:32.556Z,101069.88
2023-05-07T02:02:59.435Z,101071.50
2023-05-07T02:05:26.081Z,101076.44
2023-05-07T02:07:53.483Z,101077.25
2023-05-07T02:10:19.888Z,101069.88
2023-05-07T02:12:46.383Z,101074.53
2023-05-07T02:15:12.970Z,101061.38
2023-05-07T02:18:02.365Z,101065.22
2023-05-07T02:20:29.041Z,101062.47
2023-05-07T02:22:55.517Z,101065.19
2023-05-07T02:25:22.098Z,101066.31
2023-05-07T02:27:48.582Z,101076.69
2023-05-07T02:30:15.879Z,101070.69
2023-05-07T02:32:42.323Z,101076.69
2023-05-07T02:35:09.102Z,101078.88
2023-05-07T02:37:35.878Z,101081.06
2023-05-07T02:40:02.296Z,101078.06
2023-05-07T02:42:28.786Z,101078.84
2023-05-07T02:44:55.165Z,101078.31
2023-05-07T02:47:21.842Z,101084.31
2023-05-07T02:49:48.443Z,101078.25
2023-05-07T02:52:14.849Z,101086.47
2023-05-07T02:54:41.254Z,101085.38
2023-05-07T02:57:07.794Z,101087.03
2023-05-07T02:59:34.174Z,101076.59
2023-05-07T03:02:00.528Z,101074.94
2023-05-07T03:04:27.021Z,101078.25
2023-05-07T03:06:53.517Z,101073.59
2023-05-07T03:09:20.278Z,101072.78
2023-05-07T03:11:47.008Z,101076.06
2023-05-07T03:14:13.471Z,101072.78
2023-05-07T03:16:40.575Z,101070.84
2023-05-07T03:19:07.181Z,101074.44
2023-05-07T03:21:34.778Z,101073.31
2023-05-07T03:24:01.691Z,101077.66
2023-05-07T03:26:28.183Z,101071.63
2023-05-07T03:28:56.378Z,101061.81
2023-05-07T03:31:22.943Z,101060.13
2023-05-07T03:33:57.646Z,101062.88
2023-05-07T03:36:25.021Z,101062.63
2023-05-07T03:38:51.429Z,101060.72
2023-05-07T03:41:17.892Z,101059.66
2023-05-07T03:43:44.365Z,101056.03
2023-05-07T03:46:10.819Z,101067.47
2023-05-07T03:48:37.300Z,101068.75
2023-05-07T03:51:03.808Z,101075.78
2023-05-07T03:53:30.597Z,101078.91
2023-05-07T03:55:57.091Z,101064.44
2023-05-07T03:58:23.589Z,101074.28
2023-05-07T04:00:50.172Z,101076.22
2023-05-07T04:03:16.847Z,101080.81
2023-05-07T04:05:43.273Z,101076.44
2023-05-07T04:08:09.680Z,101081.91
2023-05-07T04:10:36.061Z,101083.03
2023-05-07T04:13:02.700Z,101084.16
2023-05-07T04:15:29.135Z,101086.03
2023-05-07T04:17:55.634Z,101083.59
2023-05-07T04:20:22.082Z,101102.19
2023-05-07T04:22:48.458Z,101092.06
2023-05-07T04:25:14.965Z,101095.09
2023-05-07T04:27:41.751Z,101098.63
2023-05-07T04:30:08.749Z,101099.44
2023-05-07T04:32:35.485Z,101092.63
2023-05-07T04:35:02.128Z,101093.69
2023-05-07T04:37:28.635Z,101092.81
2023-05-07T04:39:54.987Z,101088.44
2023-05-07T04:42:21.361Z,101085.09
2023-05-07T04:44:47.704Z,101081.81
2023-05-07T04:47:14.269Z,101083.44
2023-05-07T04:49:40.906Z,101077.28
2023-05-07T04:52:07.293Z,101084.13
2023-05-07T04:54:33.687Z,101090.94
2023-05-07T04:57:00.143Z,101083.59
2023-05-07T04:59:26.568Z,101089.63
2023-05-07T05:01:53.123Z,101087.22
2023-05-07T05:04:19.768Z,101080.13
2023-05-07T05:06:46.214Z,101090.81
2023-05-07T05:09:12.896Z,101092.13
2023-05-07T05:11:39.969Z,101094.06
2023-05-07T05:14:06.475Z,101092.16
2023-05-07T05:16:33.033Z,101085.59
2023-05-07T05:19:00.640Z,101094.66
2023-05-07T05:21:27.331Z,101090.84
2023-05-07T05:23:53.801Z,101091.41
2023-05-07T05:26:22.274Z,101098.53
2023-05-07T05:28:48.784Z,101098.56
2023-05-07T05:31:15.244Z,101111.16
2023-05-07T05:33:41.754Z,101104.31
2023-05-07T05:36:10.647Z,101099.66
2023-05-07T05:38:37.346Z,101102.97
2023-05-07T05:41:04.622Z,101097.78
2023-05-07T05:43:31.225Z,101089.88
2023-05-07T05:45:58.085Z,101093.16
2023-05-07T05:48:24.851Z,101100.28
2023-05-07T05:50:51.264Z,101103.03
2023-05-07T05:53:17.748Z,101106.34
2023-05-07T05:55:44.794Z,101110.19
2023-05-07T05:58:11.321Z,101098.69
2023-05-07T06:00:37.799Z,101106.63
2023-05-07T06:03:04.754Z,101102.50
2023-05-07T06:05:31.307Z,101100.34
2023-05-07T06:07:57.749Z,101103.63
2023-05-07T06:10:25.025Z,101104.16
2023-05-07T06:12:51.640Z,101108.53
2023-05-07T06:15:18.175Z,101115.09
2023-05-07T06:17:44.689Z,101100.31
2023-05-07T06:20:11.752Z,101111.84
2023-05-07T06:22:38.270Z,101120.59
2023-05-07T06:25:05.059Z,101115.66
2023-05-07T06:27:31.550Z,101116.44
2023-05-07T06:29:57.939Z,101120.56
2023-05-07T06:32:24.363Z,101121.91
2023-05-07T06:34:50.842Z,101115.63
2023-05-07T06:37:17.312Z,101117.53
2023-05-07T06:39:43.720Z,101123.25
2023-05-07T06:42:10.332Z,101121.06
2023-05-07T06:44:36.679Z,101121.59
2023-05-07T06:47:03.045Z,101121.06
2023-05-07T06:49:29.555Z,101126.50
2023-05-07T06:51:56.410Z,101125.41
2023-05-07T06:54:24.411Z,101129.56
2023-05-07T06:56:51.163Z,101124.31
2023-05-07T06:59:17.674Z,101129.47
2023-05-07T07:01:44.157Z,101122.03
2023-05-07T07:04:10.747Z,101118.91
2023-05-07T07:06:37.213Z,101118.63
2023-05-07T07:09:03.661Z,101123.25
2023-05-07T07:11:30.019Z,101127.53
2023-05-07T07:13:56.391Z,101124.78
2023-05-07T07:16:23.238Z,101128.78
2023-05-07T07:18:49.679Z,101129.84
2023-05-07T07:21:16.081Z,101134.97
2023-05-07T07:23:42.550Z,101137.34
2023-05-07T07:26:09.210Z,101137.25
2023-05-07T07:28:35.596Z,101137.56
2023-05-07T07:31:02.087Z,101136.50
2023-05-07T07:33:28.581Z,101141.44
2023-05-07T07:35:56.379Z,101144.38
2023-05-07T07:38:22.743Z,101144.28
2023-05-07T07:40:49.231Z,101139.28
2023-05-07T07:43:15.849Z,101139.75
2023-05-07T07:45:42.889Z,101138.25
2023-05-07T07:48:09.419Z,101131.81
2023-05-07T07:50:44.459Z,101138.38
2023-05-07T07:53:12.116Z,101139.16
2023-05-07T07:55:41.772Z,101148.72
2023-05-07T07:58:08.427Z,101150.47
2023-05-07T08:00:35.069Z,101149.16
2023-05-07T08:03:02.279Z,101147.09
2023-05-07T08:05:28.983Z,101156.84
2023-05-07T08:07:55.623Z,101162.69
2023-05-07T08:10:22.817Z,101153.09
2023-05-07T08:12:52.391Z,101163.38
2023-05-07T08:15:18.919Z,101149.41
2023-05-07T08:17:45.416Z,101151.88
2023-05-07T08:20:12.058Z,101151.06
2023-05-07T08:22:38.784Z,101150.69
2023-05-07T08:25:05.965Z,101148.31
2023-05-07T08:27:32.317Z,101160.28
2023-05-07T08:29:58.779Z,101152.75
2023-05-07T08:32:25.224Z,101152.16
2023-05-07T08:34:52.189Z,101154.00
2023-05-07T08:37:18.638Z,101160.53
2023-05-07T08:39:45.047Z,101160.72
2023-05-07T08:42:13.720Z,101159.34
2023-05-07T08:44:40.980Z,101156.66
2023-05-07T08:47:08.655Z,101165.38
2023-05-07T08:49:35.986Z,101156.06
2023-05-07T08:52:02.786Z,101157.00
2023-05-07T08:54:30.255Z,101149.75
2023-05-07T08:56:56.682Z,101150.50
2023-05-07T08:59:23.239Z,101161.75
2023-05-07T09:01:49.950Z,101146.06
2023-05-07T09:04:16.681Z,101139.75
2023-05-07T09:06:43.355Z,101144.06
2023-05-07T09:09:09.806Z,101140.94
2023-05-07T09:11:36.264Z,101140.13
2023-05-07T09:14:03.723Z,101140.63
2023-05-07T09:16:31.881Z,101140.44
2023-05-07T09:23:10.718Z,101143.91
2023-05-07T09:25:37.596Z,101138.56
2023-05-07T09:28:05.739Z,101140.41
2023-05-07T09:30:33.254Z,101140.78
2023-05-07T09:33:01.254Z,101139.38
2023-05-07T09:35:28.526Z,101142.44
2023-05-07T09:37:56.920Z,101147.44
2023-05-07T09:40:28.508Z,101145.06
2023-05-07T09:42:55.346Z,101143.66
2023-05-07T09:45:29.138Z,101140.72
2023-05-07T09:47:59.643Z,101135.16
2023-05-07T09:50:31.388Z,101139.38
2023-05-07T09:52:58.323Z,101143.53
2023-05-07T09:55:24.941Z,101141.75
2023-05-07T09:57:53.368Z,101144.94
2023-05-07T10:00:22.202Z,101132.91
2023-05-07T10:02:53.792Z,101137.03
2023-05-07T10:05:21.724Z,101133.75
2023-05-07T10:07:48.953Z,101130.97
2023-05-07T10:10:18.882Z,101128.59
2023-05-07T10:12:46.417Z,101131.38
2023-05-07T10:15:13.591Z,101127.84
2023-05-07T10:17:40.832Z,101126.66
2023-05-07T10:20:09.255Z,101124.31
2023-05-07T10:22:45.904Z,101135.63
2023-05-07T10:25:22.209Z,101128.72
2023-05-07T10:27:51.090Z,101130.25
2023-05-07T10:30:46.946Z,101127.31
2023-05-07T10:33:16.416Z,101129.91
2023-05-07T10:35:45.251Z,101128.13
2023-05-07T10:38:12.060Z,101132.56
2023-05-07T10:40:38.701Z,101128.22
2023-05-07T10:43:08.595Z,101127.59
2023-05-07T10:45:35.834Z,101127.41
2023-05-07T10:48:29.405Z,101130.25
2023-05-07T10:51:20.027Z,101126.06
2023-05-07T10:53:46.583Z,101119.31
2023-05-07T10:56:19.486Z,101118.41
2023-05-07T10:58:45.970Z,101121.09
2023-05-07T11:01:14.898Z,101128.28
2023-05-07T11:04:28.965Z,101123.59
2023-05-07T11:07:07.582Z,101122.78
2023-05-07T11:09:52.342Z,101125.38
2023-05-07T11:12:39.328Z,101111.16
2023-05-07T11:15:13.475Z,101125.06
2023-05-07T11:17:56.684Z,101109.06
2023-05-07T11:20:49.045Z,101111.84
2023-05-07T11:23:34.014Z,101118.19
2023-05-07T11:26:05.313Z,101108.94
2023-05-07T11:28:36.731Z,101105.50
2023-05-07T11:31:03.999Z,101108.09
2023-05-07T11:33:31.318Z,101105.50
2023-05-07T11:35:58.162Z,101105.50
2023-05-07T11:38:26.113Z,101103.88
2023-05-07T11:41:05.250Z,101099.31
2023-05-07T11:43:33.388Z,101100.63
2023-05-07T11:46:12.020Z,101107.09
2023-05-07T11:48:39.467Z,101107.47
2023-05-07T11:51:07.553Z,101109.06
2023-05-07T11:53:39.341Z,101099.91
2023-05-07T11:56:10.762Z,101103.22
2023-05-07T11:58:37.815Z,101102.88
2023-05-07T12:01:04.561Z,101100.44
2023-05-07T12:03:32.310Z,101095.66
2023-05-07T12:06:02.766Z,101099.88
2023-05-07T12:08:29.250Z,101100.50
2023-05-07T12:10:56.250Z,101107.50
2023-05-07T12:13:25.186Z,101100.97
2023-05-07T12:15:56.036Z,101096.25
2023-05-07T12:18:23.871Z,101109.78
2023-05-07T12:20:51.393Z,101108.75
2023-05-07T12:23:18.694Z,101106.19
2023-05-07T12:25:48.017Z,101107.94
2023-05-07T12:28:19.052Z,101109.28
2023-05-07T12:30:47.920Z,101107.31
2023-05-07T12:33:20.251Z,101106.28
2023-05-07T12:35:48.394Z,101107.81
2023-05-07T12:38:17.304Z,101104.69
2023-05-07T12:40:51.902Z,101111.22
2023-05-07T12:43:25.267Z,101110.91
2023-05-07T12:45:54.581Z,101112.38
2023-05-07T12:48:21.958Z,101112.69
2023-05-07T12:50:52.726Z,101106.84
2023-05-07T12:55:51.366Z,101108.44
2023-05-07T12:58:24.356Z,101115.44
2023-05-07T13:00:52.468Z,101114.78
2023-05-07T13:03:30.598Z,101114.16
2023-05-07T13:06:02.011Z,101112.84
2023-05-07T13:08:31.037Z,101111.69
2023-05-07T13:11:04.841Z,101121.31
2023-05-07T13:13:32.906Z,101113.66
2023-05-07T13:15:59.747Z,101113.97
2023-05-07T13:18:27.520Z,101116.88
2023-05-07T13:20:54.897Z,101110.38
2023-05-07T13:23:22.078Z,101120.00
2023-05-07T13:25:49.763Z,101112.19
2023-05-07T13:28:16.381Z,101108.94
2023-05-07T13:30:43.657Z,101121.38
2023-05-07T13:33:10.562Z,101116.22
2023-05-07T13:35:37.223Z,101112.16
2023-05-07T13:38:03.598Z,101113.44
2023-05-07T13:40:29.928Z,101117.81
2023-05-07T13:42:59.539Z,101119.47
2023-05-07T13:45:26.976Z,101112.91
2023-05-07T13:47:53.647Z,101112.75
2023-05-07T13:50:20.044Z,101112.38
2023-05-07T13:52:51.726Z,101115.31
2023-05-07T13:55:22.280Z,101107.47
2023-05-07T13:57:48.880Z,101107.44
2023-05-07T14:00:17.196Z,101110.19
2023-05-07T14:02:43.835Z,101104.78
2023-05-07T14:05:11.061Z,101117.94
2023-05-07T14:07:37.617Z,101114.97
2023-05-07T14:10:04.586Z,101124.06
2023-05-07T14:12:31.248Z,101123.84
2023-05-07T14:14:57.746Z,101130.91
2023-05-07T14:17:26.475Z,101142.66
2023-05-07T14:19:55.350Z,101144.56
2023-05-07T14:22:23.598Z,101155.28
2023-05-07T14:25:03.252Z,101165.16
2023-05-07T14:27:32.716Z,101173.44
2023-05-07T14:29:59.141Z,101169.03
2023-05-07T14:32:25.522Z,101167.97
2023-05-07T14:34:51.912Z,101154.94
2023-05-07T14:37:20.842Z,101158.38
2023-05-07T14:39:49.842Z,101173.81
2023-05-07T14:42:16.530Z,101176.34
2023-05-07T14:44:43.019Z,101183.69
2023-05-07T14:47:09.849Z,101177.22
2023-05-07T14:49:36.463Z,101174.09
2023-05-07T14:52:03.068Z,101178.78
2023-05-07T14:54:29.480Z,101173.03
2023-05-07T14:56:56.706Z,101179.50
2023-05-07T14:59:25.989Z,101168.97
2023-05-07T15:01:52.676Z,101171.19
2023-05-07T15:04:19.671Z,101176.47
2023-05-07T15:06:49.016Z,101178.50
2023-05-07T15:09:15.968Z,101186.56
2023-05-07T15:11:42.296Z,101183.53
2023-05-07T15:14:08.786Z,101192.97
2023-05-07T15:16:35.352Z,101196.13
2023-05-07T15:19:01.835Z,101194.38
2023-05-07T15:21:28.511Z,101198.69
2023-05-07T15:23:54.978Z,101209.84
2023-05-07T15:26:21.522Z,101215.53
2023-05-07T15:28:48.053Z,101211.84
2023-05-07T15:31:17.389Z,101216.16
2023-05-07T15:33:43.878Z,101214.00
2023-05-07T15:36:10.392Z,101212.53
2023-05-07T15:38:36.745Z,101210.06
2023-05-07T15:41:03.693Z,101211.72
2023-05-07T15:43:30.165Z,101213.91
2023-05-07T15:45:57.052Z,101212.00
2023-05-07T15:48:23.539Z,101206.69
2023-05-07T15:50:49.940Z,101203.72
2023-05-07T15:53:16.285Z,101200.09
2023-05-07T15:55:44.426Z,101202.34
2023-05-07T15:58:10.978Z,101207.38
2023-05-07T16:00:40.713Z,101196.59
2023-05-07T16:03:07.534Z,101204.09
2023-05-07T16:05:34.201Z,101202.94
2023-05-07T16:08:00.881Z,101209.63
2023-05-07T16:10:27.627Z,101207.31
2023-05-07T16:12:54.395Z,101206.09
2023-05-07T16:15:20.919Z,101209.03
2023-05-07T16:17:51.758Z,101212.22
2023-05-07T16:20:20.077Z,101209.94
2023-05-07T16:22:46.695Z,101207.50
2023-05-07T16:25:14.753Z,101201.81
2023-05-07T16:27:41.544Z,101202.34
2023-05-07T16:30:08.832Z,101204.53
2023-05-07T16:32:35.874Z,101204.63
2023-05-07T16:35:02.877Z,101209.63
2023-05-07T16:37:29.412Z,101214.34
2023-05-07T16:39:56.582Z,101213.47
2023-05-07T16:42:22.932Z,101214.84
2023-05-07T16:44:49.320Z,101216.94
2023-05-07T16:47:15.806Z,101227.34
2023-05-07T16:49:42.297Z,101220.22
2023-05-07T16:52:08.767Z,101224.97
2023-05-07T16:54:38.168Z,101224.81
2023-05-07T16:57:04.541Z,101229.50
2023-05-07T16:59:33.328Z,101231.38
2023-05-07T17:01:59.797Z,101228.00
2023-05-07T17:04:26.387Z,101230.75
2023-05-07T17:06:52.892Z,101231.16
2023-05-07T17:09:19.367Z,101238.63
2023-05-07T17:11:45.769Z,101239.69
2023-05-07T17:14:12.214Z,101239.19
2023-05-07T17:16:38.690Z,101236.69
2023-05-07T17:19:05.186Z,101238.63
2023-05-07T17:21:31.666Z,101238.88
2023-05-07T17:23:58.097Z,101246.53
2023-05-07T17:26:24.502Z,101260.09
2023-05-07T17:28:51.168Z,101263.41
2023-05-07T17:31:17.705Z,101272.88
2023-05-07T17:33:44.262Z,101269.81
2023-05-07T17:36:10.728Z,101266.75
2023-05-07T17:38:37.144Z,101266.22
2023-05-07T17:41:03.587Z,101275.66
2023-05-07T17:43:30.226Z,101276.28
2023-05-07T17:45:56.710Z,101284.00
2023-05-07T17:48:24.395Z,101286.16
2023-05-07T17:50:50.788Z,101292.81
2023-05-07T17:53:17.676Z,101297.47
2023-05-07T17:55:45.071Z,101300.53
2023-05-07T17:58:12.198Z,101298.31
2023-05-07T18:00:39.167Z,101297.72
2023-05-07T18:03:05.861Z,101304.28
2023-05-07T18:05:35.439Z,101298.75
2023-05-07T18:08:02.022Z,101294.66
2023-05-07T18:10:28.665Z,101303.75
2023-05-07T18:12:55.157Z,101302.69
2023-05-07T18:15:21.638Z,101308.19
2023-05-07T18:17:48.158Z,101317.34
2023-05-07T18:20:14.700Z,101317.88
2023-05-07T18:22:41.400Z,101318.41
2023-05-07T18:25:08.477Z,101318.13
2023-05-07T18:27:34.937Z,101330.31
2023-05-07T18:30:01.586Z,101327.59
2023-05-07T18:32:28.242Z,101332.06
2023-05-07T18:34:55.015Z,101336.00
2023-05-07T18:37:21.887Z,101343.56
2023-05-07T18:39:49.344Z,101340.22
2023-05-07T18:42:15.859Z,101343.31
2023-05-07T18:44:42.489Z,101346.88
2023-05-07T18:47:08.851Z,101339.44
2023-05-07T18:49:36.040Z,101342.88
2023-05-07T18:52:02.690Z,101342.88
2023-05-07T18:54:29.168Z,101353.41
2023-05-07T18:56:55.570Z,101355.91
2023-05-07T18:59:22.261Z,101358.41
2023-05-07T19:01:48.767Z,101356.25
2023-05-07T19:04:16.411Z,101355.19
2023-05-07T19:06:42.949Z,101359.28
2023-05-07T19:09:09.418Z,101369.47
2023-05-07T19:11:35.894Z,101369.75
2023-05-07T19:14:04.463Z,101365.06
2023-05-07T19:16:31.282Z,101371.13
2023-05-07T19:18:57.862Z,101379.97
2023-05-07T19:21:25.119Z,101379.47
2023-05-07T19:23:53.695Z,101383.81
2023-05-07T19:26:21.177Z,101383.28
2023-05-07T19:28:52.070Z,101383.31
2023-05-07T19:31:26.976Z,101387.75
2023-05-07T19:33:54.555Z,101396.84
2023-05-07T19:36:21.110Z,101400.41
2023-05-07T19:38:49.871Z,101398.22
2023-05-07T19:41:16.352Z,101401.00
2023-05-07T19:43:42.866Z,101409.31
2023-05-07T19:46:09.255Z,101415.69
2023-05-07T19:48:35.813Z,101414.94
2023-05-07T19:51:02.968Z,101429.22
2023-05-07T19:53:30.268Z,101427.88
2023-05-07T19:56:04.599Z,101428.19
2023-05-07T19:58:31.079Z,101433.69
2023-05-07T20:00:57.557Z,101431.50
2023-05-07T20:03:24.213Z,101433.13
2023-05-07T20:05:50.896Z,101428.16
2023-05-07T20:08:17.310Z,101436.38
2023-05-07T20:10:43.782Z,101433.69
2023-05-07T20:13:11.049Z,101433.38
2023-05-07T20:15:38.396Z,101431.97
2023-05-07T20:18:04.945Z,101434.19
2023-05-07T20:20:32.361Z,101444.09
2023-05-07T20:22:58.745Z,101445.75
2023-05-07T20:25:25.452Z,101452.06
2023-05-07T20:27:51.811Z,101455.09
2023-05-07T20:30:20.341Z,101462.50
2023-05-07T20:32:46.996Z,101460.59
2023-05-07T20:35:13.649Z,101457.84
2023-05-07T20:37:40.271Z,101456.19
2023-05-07T20:40:08.087Z,101465.00
2023-05-07T20:42:34.459Z,101470.50
2023-05-07T20:45:03.385Z,101469.44
2023-05-07T20:47:32.643Z,101469.13
2023-05-07T20:49:59.098Z,101469.41
2023-05-07T20:52:25.457Z,101467.72
2023-05-07T20:54:52.264Z,101471.06
2023-05-07T20:57:19.696Z,101465.25
2023-05-07T20:59:46.372Z,101471.59
2023-05-07T21:02:12.988Z,101467.22
2023-05-07T21:04:39.523Z,101469.38
2023-05-07T21:07:06.417Z,101470.50
2023-05-07T21:09:33.021Z,101472.41
2023-05-07T21:11:59.621Z,101468.56
2023-05-07T21:14:26.033Z,101470.50
2023-05-07T21:16:52.743Z,101469.97
2023-05-07T21:19:19.265Z,101475.19
2023-05-07T21:21:45.673Z,101474.34
2023-05-07T21:24:12.396Z,101478.19
2023-05-07T21:26:38.807Z,101478.22
2023-05-07T21:29:05.259Z,101480.66
2023-05-07T21:31:31.931Z,101479.31
2023-05-07T21:33:58.549Z,101479.31
2023-05-07T21:36:25.198Z,101478.75
2023-05-07T21:38:51.783Z,101480.41
2023-05-07T21:41:20.330Z,101481.50
2023-05-07T21:43:46.747Z,101484.50
2023-05-07T21:46:13.572Z,101478.75
2023-05-07T21:48:40.088Z,101480.41
2023-05-07T21:51:07.596Z,101477.66
2023-05-07T21:53:35.013Z,101475.47
2023-05-07T21:56:02.850Z,101476.00
2023-05-07T21:58:29.502Z,101474.91
2023-05-07T22:00:56.050Z,101477.38
2023-05-07T22:03:25.899Z,101474.94
2023-05-07T22:05:52.401Z,101476.00
2023-05-07T22:08:18.753Z,101477.66
2023-05-07T22:10:45.248Z,101477.38
2023-05-07T22:13:12.127Z,101478.78
2023-05-07T22:15:53.258Z,101479.31
2023-05-07T22:18:23.564Z,101478.78
2023-05-07T22:20:51.701Z,101476.03
2023-05-07T22:23:18.185Z,101479.31
2023-05-07T22:25:44.673Z,101475.75
2023-05-07T22:28:11.210Z,101482.59
2023-05-07T22:30:37.831Z,101471.06
2023-05-07T22:33:04.499Z,101481.50
2023-05-07T22:35:30.968Z,101474.06
2023-05-07T22:37:58.352Z,101473.25
2023-05-07T22:40:25.028Z,101473.00
2023-05-07T22:42:51.491Z,101470.50
2023-05-07T22:45:17.950Z,101474.34
2023-05-07T22:47:44.504Z,101479.84
2023-05-07T22:50:12.343Z,101471.34
2023-05-07T22:52:39.004Z,101480.16
2023-05-07T22:55:05.963Z,101476.84
2023-05-07T22:57:32.482Z,101483.13
2023-05-07T22:59:58.941Z,101480.41
2023-05-07T23:02:28.829Z,101464.47
2023-05-07T23:04:58.837Z,101463.09
2023-05-07T23:07:25.324Z,101475.16
2023-05-07T23:09:51.858Z,101474.06
2023-05-07T23:12:18.254Z,101469.41
2023-05-07T23:14:44.882Z,101477.06
2023-05-07T23:17:11.640Z,101471.31
2023-05-07T23:19:38.218Z,101475.41
2023-05-07T23:22:04.682Z,101470.50
2023-05-07T23:24:31.302Z,101477.06
2023-05-07T23:26:57.784Z,101475.72
2023-05-07T23:29:24.231Z,101472.72
2023-05-07T23:31:50.962Z,101472.16
2023-05-07T23:34:23.557Z,101474.91
2023-05-07T23:36:51.544Z,101474.63
2023-05-07T23:39:18.697Z,101466.66
2023-05-07T23:41:45.449Z,101467.75
2023-05-07T23:44:11.941Z,101476.03
2023-05-07T23:46:38.463Z,101477.66
2023-05-07T23:49:05.099Z,101469.69
2023-05-07T23:51:31.477Z,101478.19
2023-05-07T23:53:57.984Z,101479.31
2023-05-07T23:56:24.593Z,101470.78
2023-05-07T23:58:50.994Z,101479.31
